sensor_id;sensor_type;location;lat;lon;timestamp;temperature;humidity
79513;SHT31;68962;51.980;5.678;2023-08-20T05:47:42;27.4;48.4
79513;SHT31;68962;51.980;5.678;2023-08-20T05:50:12;27.4;49.0
79513;SHT31;68962;51.980;5.678;2023-08-20T05:52:43;27.5;48.0
79513;SHT31;68962;51.980;5.678;2023-08-20T05:55:11;27.4;48.1
79513;SHT31;68962;51.980;5.678;2023-08-20T05:57:41;27.1;48.6
79513;SHT31;68962;51.980;5.678;2023-08-20T06:00:10;27.0;49.0
79513;SHT31;68962;51.980;5.678;2023-08-20T06:02:39;26.8;49.7
79513;SHT31;68962;51.980;5.678;2023-08-20T06:05:08;26.7;50.0
79513;SHT31;68962;51.980;5.678;2023-08-20T06:07:36;26.8;50.3
79513;SHT31;68962;51.980;5.678;2023-08-20T06:10:06;26.9;50.2
79513;SHT31;68962;51.980;5.678;2023-08-20T06:12:35;27.2;49.8
79513;SHT31;68962;51.980;5.678;2023-08-20T06:15:03;27.5;49.4
79513;SHT31;68962;51.980;5.678;2023-08-20T06:17:33;27.8;48.4
79513;SHT31;68962;51.980;5.678;2023-08-20T06:20:01;28.2;47.3
79513;SHT31;68962;51.980;5.678;2023-08-20T06:22:33;28.5;46.0
79513;SHT31;68962;51.980;5.678;2023-08-20T06:25:02;28.8;45.8
79513;SHT31;68962;51.980;5.678;2023-08-20T06:27:31;29.0;45.5
79513;SHT31;68962;51.980;5.678;2023-08-20T06:29:59;29.3;44.2
79513;SHT31;68962;51.980;5.678;2023-08-20T06:32:28;29.6;44.0
79513;SHT31;68962;51.980;5.678;2023-08-20T06:34:56;29.8;43.3
79513;SHT31;68962;51.980;5.678;2023-08-20T06:37:25;30.0;42.9
79513;SHT31;68962;51.980;5.678;2023-08-20T06:39:53;30.2;42.3
79513;SHT31;68962;51.980;5.678;2023-08-20T06:42:22;30.5;42.0
79513;SHT31;68962;51.980;5.678;2023-08-20T06:44:50;30.7;41.7
79513;SHT31;68962;51.980;5.678;2023-08-20T06:47:18;30.9;41.3
79513;SHT31;68962;51.980;5.678;2023-08-20T06:49:47;31.0;40.8
79513;SHT31;68962;51.980;5.678;2023-08-20T06:52:15;31.2;40.7
79513;SHT31;68962;51.980;5.678;2023-08-20T06:54:44;31.4;40.1
79513;SHT31;68962;51.980;5.678;2023-08-20T06:57:13;31.6;39.8
79513;SHT31;68962;51.980;5.678;2023-08-20T06:59:41;31.7;39.7
79513;SHT31;68962;51.980;5.678;2023-08-20T07:02:10;31.8;39.2
79513;SHT31;68962;51.980;5.678;2023-08-20T07:04:39;31.9;39.1
79513;SHT31;68962;51.980;5.678;2023-08-20T07:07:07;32.1;38.8
79513;SHT31;68962;51.980;5.678;2023-08-20T07:09:36;32.3;38.1
79513;SHT31;68962;51.980;5.678;2023-08-20T07:12:06;32.4;38.6
79513;SHT31;68962;51.980;5.678;2023-08-20T07:14:35;32.6;38.2
79513;SHT31;68962;51.980;5.678;2023-08-20T07:17:06;32.8;38.0
79513;SHT31;68962;51.980;5.678;2023-08-20T07:19:36;33.1;37.4
79513;SHT31;68962;51.980;5.678;2023-08-20T07:22:05;33.3;36.6
79513;SHT31;68962;51.980;5.678;2023-08-20T07:24:33;33.5;36.7
79513;SHT31;68962;51.980;5.678;2023-08-20T07:27:02;33.7;36.5
79513;SHT31;68962;51.980;5.678;2023-08-20T07:29:36;33.9;35.6
79513;SHT31;68962;51.980;5.678;2023-08-20T07:32:05;34.1;35.4
79513;SHT31;68962;51.980;5.678;2023-08-20T07:34:35;34.1;35.3
79513;SHT31;68962;51.980;5.678;2023-08-20T07:37:04;34.2;35.6
79513;SHT31;68962;51.980;5.678;2023-08-20T07:39:32;34.4;35.5
79513;SHT31;68962;51.980;5.678;2023-08-20T07:42:01;34.6;35.2
79513;SHT31;68962;51.980;5.678;2023-08-20T07:44:30;34.7;34.5
79513;SHT31;68962;51.980;5.678;2023-08-20T07:46:58;34.9;34.0
79513;SHT31;68962;51.980;5.678;2023-08-20T07:49:27;35.0;34.0
79513;SHT31;68962;51.980;5.678;2023-08-20T07:51:56;35.1;33.2
79513;SHT31;68962;51.980;5.678;2023-08-20T07:54:24;35.2;33.7
79513;SHT31;68962;51.980;5.678;2023-08-20T07:56:53;35.3;33.0
79513;SHT31;68962;51.980;5.678;2023-08-20T07:59:22;35.4;32.8
79513;SHT31;68962;51.980;5.678;2023-08-20T08:01:50;35.5;32.9
79513;SHT31;68962;51.980;5.678;2023-08-20T08:04:21;35.5;32.8
79513;SHT31;68962;51.980;5.678;2023-08-20T08:06:49;35.7;32.9
79513;SHT31;68962;51.980;5.678;2023-08-20T08:09:26;35.8;32.5
79513;SHT31;68962;51.980;5.678;2023-08-20T08:11:56;36.0;32.3
79513;SHT31;68962;51.980;5.678;2023-08-20T08:14:25;36.2;32.3
79513;SHT31;68962;51.980;5.678;2023-08-20T08:16:54;36.4;31.8
79513;SHT31;68962;51.980;5.678;2023-08-20T08:19:22;36.6;31.3
79513;SHT31;68962;51.980;5.678;2023-08-20T08:21:51;36.7;31.0
79513;SHT31;68962;51.980;5.678;2023-08-20T08:24:20;36.8;30.8
79513;SHT31;68962;51.980;5.678;2023-08-20T08:26:48;36.8;30.7
79513;SHT31;68962;51.980;5.678;2023-08-20T08:29:18;36.9;30.1
79513;SHT31;68962;51.980;5.678;2023-08-20T08:31:47;36.9;30.7
79513;SHT31;68962;51.980;5.678;2023-08-20T08:34:15;37.0;30.6
79513;SHT31;68962;51.980;5.678;2023-08-20T08:36:44;37.1;29.8
79513;SHT31;68962;51.980;5.678;2023-08-20T08:39:13;37.1;30.1
79513;SHT31;68962;51.980;5.678;2023-08-20T08:41:42;37.2;30.2
79513;SHT31;68962;51.980;5.678;2023-08-20T08:44:14;37.3;29.5
79513;SHT31;68962;51.980;5.678;2023-08-20T08:46:42;37.4;29.0
79513;SHT31;68962;51.980;5.678;2023-08-20T08:49:11;37.4;28.8
79513;SHT31;68962;51.980;5.678;2023-08-20T08:51:42;37.4;29.1
79513;SHT31;68962;51.980;5.678;2023-08-20T08:54:13;37.4;28.9
79513;SHT31;68962;51.980;5.678;2023-08-20T08:56:43;37.4;28.8
79513;SHT31;68962;51.980;5.678;2023-08-20T08:59:12;37.3;28.9
79513;SHT31;68962;51.980;5.678;2023-08-20T09:01:41;37.3;29.0
79513;SHT31;68962;51.980;5.678;2023-08-20T09:04:10;37.3;29.4
79513;SHT31;68962;51.980;5.678;2023-08-20T09:06:48;37.3;29.1
79513;SHT31;68962;51.980;5.678;2023-08-20T09:09:20;37.3;28.8
79513;SHT31;68962;51.980;5.678;2023-08-20T09:11:49;37.2;29.1
79513;SHT31;68962;51.980;5.678;2023-08-20T09:14:28;37.2;29.6
79513;SHT31;68962;51.980;5.678;2023-08-20T09:16:58;37.2;29.5
79513;SHT31;68962;51.980;5.678;2023-08-20T09:19:31;37.3;29.9
79513;SHT31;68962;51.980;5.678;2023-08-20T09:22:05;37.3;29.4
79513;SHT31;68962;51.980;5.678;2023-08-20T09:24:39;37.5;28.5
79513;SHT31;68962;51.980;5.678;2023-08-20T09:27:09;37.5;29.3
79513;SHT31;68962;51.980;5.678;2023-08-20T09:29:46;37.5;27.6
79513;SHT31;68962;51.980;5.678;2023-08-20T09:32:16;37.5;28.0
79513;SHT31;68962;51.980;5.678;2023-08-20T09:34:46;37.5;28.6
79513;SHT31;68962;51.980;5.678;2023-08-20T09:37:17;37.6;28.0
79513;SHT31;68962;51.980;5.678;2023-08-20T09:39:47;37.6;28.8
79513;SHT31;68962;51.980;5.678;2023-08-20T09:42:16;37.7;28.0
79513;SHT31;68962;51.980;5.678;2023-08-20T09:44:46;37.7;27.7
79513;SHT31;68962;51.980;5.678;2023-08-20T09:47:16;37.7;28.1
79513;SHT31;68962;51.980;5.678;2023-08-20T09:49:46;37.8;28.2
79513;SHT31;68962;51.980;5.678;2023-08-20T09:52:20;37.8;27.0
79513;SHT31;68962;51.980;5.678;2023-08-20T09:55:03;37.9;26.4
79513;SHT31;68962;51.980;5.678;2023-08-20T09:57:36;37.9;27.1
79513;SHT31;68962;51.980;5.678;2023-08-20T10:00:08;37.9;26.5
79513;SHT31;68962;51.980;5.678;2023-08-20T10:02:39;37.9;26.6
79513;SHT31;68962;51.980;5.678;2023-08-20T10:05:09;38.0;26.7
79513;SHT31;68962;51.980;5.678;2023-08-20T10:07:40;38.1;26.4
79513;SHT31;68962;51.980;5.678;2023-08-20T10:10:10;38.2;26.8
79513;SHT31;68962;51.980;5.678;2023-08-20T10:12:40;38.3;26.1
79513;SHT31;68962;51.980;5.678;2023-08-20T10:15:12;38.4;26.5
79513;SHT31;68962;51.980;5.678;2023-08-20T10:17:42;38.4;26.5
79513;SHT31;68962;51.980;5.678;2023-08-20T10:20:13;38.5;25.8
79513;SHT31;68962;51.980;5.678;2023-08-20T10:22:44;38.5;26.6
79513;SHT31;68962;51.980;5.678;2023-08-20T10:25:25;38.5;26.3
79513;SHT31;68962;51.980;5.678;2023-08-20T10:27:57;38.5;26.8
79513;SHT31;68962;51.980;5.678;2023-08-20T10:30:29;38.5;26.5
79513;SHT31;68962;51.980;5.678;2023-08-20T10:32:58;38.6;26.8
79513;SHT31;68962;51.980;5.678;2023-08-20T10:35:48;38.7;26.7
79513;SHT31;68962;51.980;5.678;2023-08-20T10:38:17;38.8;26.1
79513;SHT31;68962;51.980;5.678;2023-08-20T10:40:51;38.9;26.3
79513;SHT31;68962;51.980;5.678;2023-08-20T10:43:31;39.0;25.7
79513;SHT31;68962;51.980;5.678;2023-08-20T10:46:05;39.0;25.6
79513;SHT31;68962;51.980;5.678;2023-08-20T10:48:35;39.1;25.5
79513;SHT31;68962;51.980;5.678;2023-08-20T10:51:10;39.1;24.7
79513;SHT31;68962;51.980;5.678;2023-08-20T10:53:41;39.1;25.3
79513;SHT31;68962;51.980;5.678;2023-08-20T10:56:12;39.1;24.3
79513;SHT31;68962;51.980;5.678;2023-08-20T10:58:45;39.1;24.4
79513;SHT31;68962;51.980;5.678;2023-08-20T11:01:16;39.0;25.6
79513;SHT31;68962;51.980;5.678;2023-08-20T11:03:48;38.8;25.6
79513;SHT31;68962;51.980;5.678;2023-08-20T11:06:18;38.8;25.6
79513;SHT31;68962;51.980;5.678;2023-08-20T11:08:46;38.8;24.8
79513;SHT31;68962;51.980;5.678;2023-08-20T11:11:17;38.8;25.0
79513;SHT31;68962;51.980;5.678;2023-08-20T11:13:48;38.8;25.1
79513;SHT31;68962;51.980;5.678;2023-08-20T11:16:18;38.7;25.1
79513;SHT31;68962;51.980;5.678;2023-08-20T11:18:47;38.7;25.1
79513;SHT31;68962;51.980;5.678;2023-08-20T11:21:18;38.7;25.2
79513;SHT31;68962;51.980;5.678;2023-08-20T11:23:50;38.6;25.3
79513;SHT31;68962;51.980;5.678;2023-08-20T11:26:19;38.4;24.6
79513;SHT31;68962;51.980;5.678;2023-08-20T11:28:47;38.3;24.9
79513;SHT31;68962;51.980;5.678;2023-08-20T11:31:16;38.2;25.5
79513;SHT31;68962;51.980;5.678;2023-08-20T11:33:45;38.1;26.2
79513;SHT31;68962;51.980;5.678;2023-08-20T11:36:15;38.1;25.3
79513;SHT31;68962;51.980;5.678;2023-08-20T11:38:49;38.1;24.6
79513;SHT31;68962;51.980;5.678;2023-08-20T11:41:18;38.0;25.1
79513;SHT31;68962;51.980;5.678;2023-08-20T11:43:48;38.0;25.6
79513;SHT31;68962;51.980;5.678;2023-08-20T11:46:19;37.9;25.0
79513;SHT31;68962;51.980;5.678;2023-08-20T11:49:12;37.8;25.0
79513;SHT31;68962;51.980;5.678;2023-08-20T11:51:42;37.6;25.6
79513;SHT31;68962;51.980;5.678;2023-08-20T11:54:13;37.3;25.8
79513;SHT31;68962;51.980;5.678;2023-08-20T11:56:46;36.9;26.6
79513;SHT31;68962;51.980;5.678;2023-08-20T11:59:17;36.6;27.1
79513;SHT31;68962;51.980;5.678;2023-08-20T12:01:52;36.3;27.8
79513;SHT31;68962;51.980;5.678;2023-08-20T12:04:24;36.1;28.1
79513;SHT31;68962;51.980;5.678;2023-08-20T12:07:03;35.8;28.2
79513;SHT31;68962;51.980;5.678;2023-08-20T12:09:33;35.5;28.0
79513;SHT31;68962;51.980;5.678;2023-08-20T12:12:02;35.1;28.4
79513;SHT31;68962;51.980;5.678;2023-08-20T12:14:31;34.6;29.1
79513;SHT31;68962;51.980;5.678;2023-08-20T12:17:01;34.2;29.7
79513;SHT31;68962;51.980;5.678;2023-08-20T12:19:30;33.7;30.2
79513;SHT31;68962;51.980;5.678;2023-08-20T12:21:59;33.4;31.2
79513;SHT31;68962;51.980;5.678;2023-08-20T12:24:28;33.1;31.9
79513;SHT31;68962;51.980;5.678;2023-08-20T12:26:57;32.9;31.9
79513;SHT31;68962;51.980;5.678;2023-08-20T12:29:25;32.7;32.5
79513;SHT31;68962;51.980;5.678;2023-08-20T12:31:54;32.4;32.8
79513;SHT31;68962;51.980;5.678;2023-08-20T12:34:22;32.3;32.9
79513;SHT31;68962;51.980;5.678;2023-08-20T12:36:52;32.2;33.4
79513;SHT31;68962;51.980;5.678;2023-08-20T12:39:20;32.2;33.7
79513;SHT31;68962;51.980;5.678;2023-08-20T12:41:49;32.1;34.3
79513;SHT31;68962;51.980;5.678;2023-08-20T12:44:18;32.1;33.3
79513;SHT31;68962;51.980;5.678;2023-08-20T12:46:46;32.1;33.4
79513;SHT31;68962;51.980;5.678;2023-08-20T12:49:17;32.1;32.5
79513;SHT31;68962;51.980;5.678;2023-08-20T12:51:47;32.0;33.2
79513;SHT31;68962;51.980;5.678;2023-08-20T12:54:15;31.9;34.2
79513;SHT31;68962;51.980;5.678;2023-08-20T12:56:45;31.9;33.2
79513;SHT31;68962;51.980;5.678;2023-08-20T12:59:13;31.8;32.9
79513;SHT31;68962;51.980;5.678;2023-08-20T13:01:41;31.7;33.8
79513;SHT31;68962;51.980;5.678;2023-08-20T13:04:11;31.6;33.3
79513;SHT31;68962;51.980;5.678;2023-08-20T13:06:40;31.4;33.8
79513;SHT31;68962;51.980;5.678;2023-08-20T13:09:12;31.3;33.9
79513;SHT31;68962;51.980;5.678;2023-08-20T13:11:43;31.1;33.8
79513;SHT31;68962;51.980;5.678;2023-08-20T13:14:13;31.0;34.5
79513;SHT31;68962;51.980;5.678;2023-08-20T13:16:42;31.0;33.8
79513;SHT31;68962;51.980;5.678;2023-08-20T13:19:14;30.9;34.3
79513;SHT31;68962;51.980;5.678;2023-08-20T13:21:44;30.9;34.5
79513;SHT31;68962;51.980;5.678;2023-08-20T13:24:13;30.8;35.1
79513;SHT31;68962;51.980;5.678;2023-08-20T13:26:41;30.8;35.4
79513;SHT31;68962;51.980;5.678;2023-08-20T13:29:11;30.8;35.0
79513;SHT31;68962;51.980;5.678;2023-08-20T13:31:39;30.7;35.6
79513;SHT31;68962;51.980;5.678;2023-08-20T13:34:08;30.6;35.0
79513;SHT31;68962;51.980;5.678;2023-08-20T13:36:36;30.6;35.2
79513;SHT31;68962;51.980;5.678;2023-08-20T13:39:05;30.5;34.9
79513;SHT31;68962;51.980;5.678;2023-08-20T13:41:34;30.5;34.8
79513;SHT31;68962;51.980;5.678;2023-08-20T13:44:02;30.4;35.7
79513;SHT31;68962;51.980;5.678;2023-08-20T13:46:31;30.4;35.9
79513;SHT31;68962;51.980;5.678;2023-08-20T13:49:00;30.3;36.3
79513;SHT31;68962;51.980;5.678;2023-08-20T13:51:29;30.2;36.7
79513;SHT31;68962;51.980;5.678;2023-08-20T13:53:58;30.1;36.6
79513;SHT31;68962;51.980;5.678;2023-08-20T13:56:27;30.1;37.2
79513;SHT31;68962;51.980;5.678;2023-08-20T13:58:55;30.1;36.0
79513;SHT31;68962;51.980;5.678;2023-08-20T14:01:26;30.0;36.4
79513;SHT31;68962;51.980;5.678;2023-08-20T14:03:54;29.9;37.0
79513;SHT31;68962;51.980;5.678;2023-08-20T14:06:23;29.9;36.2
79513;SHT31;68962;51.980;5.678;2023-08-20T14:08:54;29.8;36.3
79513;SHT31;68962;51.980;5.678;2023-08-20T14:11:24;29.7;36.8
79513;SHT31;68962;51.980;5.678;2023-08-20T14:13:52;29.6;36.7
79513;SHT31;68962;51.980;5.678;2023-08-20T14:16:21;29.5;37.2
79513;SHT31;68962;51.980;5.678;2023-08-20T14:18:52;29.5;37.1
79513;SHT31;68962;51.980;5.678;2023-08-20T14:21:21;29.5;37.3
79513;SHT31;68962;51.980;5.678;2023-08-20T14:23:50;29.5;37.5
79513;SHT31;68962;51.980;5.678;2023-08-20T14:26:19;29.4;37.4
79513;SHT31;68962;51.980;5.678;2023-08-20T14:28:47;29.4;37.8
79513;SHT31;68962;51.980;5.678;2023-08-20T14:31:16;29.4;37.4
79513;SHT31;68962;51.980;5.678;2023-08-20T14:33:45;29.4;37.0
79513;SHT31;68962;51.980;5.678;2023-08-20T14:36:14;29.3;36.6
79513;SHT31;68962;51.980;5.678;2023-08-20T14:38:42;29.3;37.4
79513;SHT31;68962;51.980;5.678;2023-08-20T14:41:11;29.3;38.6
79513;SHT31;68962;51.980;5.678;2023-08-20T14:43:41;29.2;37.6
79513;SHT31;68962;51.980;5.678;2023-08-20T14:46:10;29.2;37.4
79513;SHT31;68962;51.980;5.678;2023-08-20T14:48:38;29.2;38.2
79513;SHT31;68962;51.980;5.678;2023-08-20T14:51:09;29.2;38.5
79513;SHT31;68962;51.980;5.678;2023-08-20T14:53:39;29.2;39.1
79513;SHT31;68962;51.980;5.678;2023-08-20T14:56:08;29.2;38.3
79513;SHT31;68962;51.980;5.678;2023-08-20T14:58:36;29.2;37.8
79513;SHT31;68962;51.980;5.678;2023-08-20T15:01:04;29.2;38.2
79513;SHT31;68962;51.980;5.678;2023-08-20T15:03:34;29.2;38.5
79513;SHT31;68962;51.980;5.678;2023-08-20T15:06:03;29.2;38.4
79513;SHT31;68962;51.980;5.678;2023-08-20T15:08:31;29.2;38.1
79513;SHT31;68962;51.980;5.678;2023-08-20T15:11:01;29.2;38.0
79513;SHT31;68962;51.980;5.678;2023-08-20T15:13:31;29.2;38.4
79513;SHT31;68962;51.980;5.678;2023-08-20T15:15:59;29.2;38.5
79513;SHT31;68962;51.980;5.678;2023-08-20T15:18:28;29.2;39.0
79513;SHT31;68962;51.980;5.678;2023-08-20T15:20:58;29.2;38.5
79513;SHT31;68962;51.980;5.678;2023-08-20T15:23:28;29.3;37.8
79513;SHT31;68962;51.980;5.678;2023-08-20T15:25:56;29.3;37.8
79513;SHT31;68962;51.980;5.678;2023-08-20T15:28:25;29.2;38.2
79513;SHT31;68962;51.980;5.678;2023-08-20T15:30:57;29.2;38.7
79513;SHT31;68962;51.980;5.678;2023-08-20T15:33:25;29.2;38.1
79513;SHT31;68962;51.980;5.678;2023-08-20T15:35:56;29.2;38.2
79513;SHT31;68962;51.980;5.678;2023-08-20T15:38:25;29.2;38.2
79513;SHT31;68962;51.980;5.678;2023-08-20T15:40:55;29.1;38.0
79513;SHT31;68962;51.980;5.678;2023-08-20T15:43:26;29.1;38.0
79513;SHT31;68962;51.980;5.678;2023-08-20T15:45:56;29.1;38.1
79513;SHT31;68962;51.980;5.678;2023-08-20T15:48:24;29.1;38.5
79513;SHT31;68962;51.980;5.678;2023-08-20T15:50:53;29.1;38.9
79513;SHT31;68962;51.980;5.678;2023-08-20T15:53:21;29.0;39.5
79513;SHT31;68962;51.980;5.678;2023-08-20T15:55:50;29.0;40.1
79513;SHT31;68962;51.980;5.678;2023-08-20T15:58:20;29.0;40.4
79513;SHT31;68962;51.980;5.678;2023-08-20T16:00:48;29.0;40.0
79513;SHT31;68962;51.980;5.678;2023-08-20T16:03:16;28.9;40.5
79513;SHT31;68962;51.980;5.678;2023-08-20T16:05:45;28.9;40.1
79513;SHT31;68962;51.980;5.678;2023-08-20T16:08:14;28.9;40.4
79513;SHT31;68962;51.980;5.678;2023-08-20T16:10:43;28.8;40.3
79513;SHT31;68962;51.980;5.678;2023-08-20T16:13:11;28.7;40.9
79513;SHT31;68962;51.980;5.678;2023-08-20T16:15:40;28.7;41.2
79513;SHT31;68962;51.980;5.678;2023-08-20T16:18:08;28.6;41.2
79513;SHT31;68962;51.980;5.678;2023-08-20T16:20:39;28.6;40.9
79513;SHT31;68962;51.980;5.678;2023-08-20T16:23:07;28.6;41.0
79513;SHT31;68962;51.980;5.678;2023-08-20T16:25:36;28.5;40.3
79513;SHT31;68962;51.980;5.678;2023-08-20T16:28:08;28.5;40.9
79513;SHT31;68962;51.980;5.678;2023-08-20T16:30:38;28.4;40.8
79513;SHT31;68962;51.980;5.678;2023-08-20T16:33:08;28.4;40.9
79513;SHT31;68962;51.980;5.678;2023-08-20T16:35:37;28.4;40.8
79513;SHT31;68962;51.980;5.678;2023-08-20T16:38:06;28.4;41.3
79513;SHT31;68962;51.980;5.678;2023-08-20T16:40:36;28.4;41.3
79513;SHT31;68962;51.980;5.678;2023-08-20T16:43:05;28.4;41.8
79513;SHT31;68962;51.980;5.678;2023-08-20T16:45:34;28.4;41.8
79513;SHT31;68962;51.980;5.678;2023-08-20T16:48:03;28.4;42.3
79513;SHT31;68962;51.980;5.678;2023-08-20T16:50:32;28.4;42.0
79513;SHT31;68962;51.980;5.678;2023-08-20T16:53:00;28.4;41.6
79513;SHT31;68962;51.980;5.678;2023-08-20T16:55:29;28.4;41.9
79513;SHT31;68962;51.980;5.678;2023-08-20T16:57:57;28.4;42.8
79513;SHT31;68962;51.980;5.678;2023-08-20T17:00:26;28.4;42.3
79513;SHT31;68962;51.980;5.678;2023-08-20T17:02:55;28.4;42.0
79513;SHT31;68962;51.980;5.678;2023-08-20T17:05:25;28.5;42.6
79513;SHT31;68962;51.980;5.678;2023-08-20T17:07:54;28.5;42.5
79513;SHT31;68962;51.980;5.678;2023-08-20T17:10:23;28.5;42.4
79513;SHT31;68962;51.980;5.678;2023-08-20T17:12:52;28.5;42.0
79513;SHT31;68962;51.980;5.678;2023-08-20T17:15:21;28.5;42.5
79513;SHT31;68962;51.980;5.678;2023-08-20T17:17:52;28.5;42.8
79513;SHT31;68962;51.980;5.678;2023-08-20T17:20:21;28.5;42.7
79513;SHT31;68962;51.980;5.678;2023-08-20T17:22:49;28.5;42.8
79513;SHT31;68962;51.980;5.678;2023-08-20T17:25:18;28.4;42.3
79513;SHT31;68962;51.980;5.678;2023-08-20T17:27:48;28.4;42.5
79513;SHT31;68962;51.980;5.678;2023-08-20T17:30:17;28.3;42.5
79513;SHT31;68962;51.980;5.678;2023-08-20T17:32:45;28.3;42.7
79513;SHT31;68962;51.980;5.678;2023-08-20T17:35:14;28.2;42.7
79513;SHT31;68962;51.980;5.678;2023-08-20T17:37:42;28.1;42.8
79513;SHT31;68962;51.980;5.678;2023-08-20T17:40:11;28.0;43.2
79513;SHT31;68962;51.980;5.678;2023-08-20T17:42:40;28.0;43.6
79513;SHT31;68962;51.980;5.678;2023-08-20T17:45:09;27.9;42.8
79513;SHT31;68962;51.980;5.678;2023-08-20T17:47:37;27.9;42.8
79513;SHT31;68962;51.980;5.678;2023-08-20T17:50:07;27.8;43.2
79513;SHT31;68962;51.980;5.678;2023-08-20T17:52:38;27.8;42.6
79513;SHT31;68962;51.980;5.678;2023-08-20T17:55:07;27.7;42.6
79513;SHT31;68962;51.980;5.678;2023-08-20T17:57:35;27.6;42.8
79513;SHT31;68962;51.980;5.678;2023-08-20T18:02:32;27.5;42.7
79513;SHT31;68962;51.980;5.678;2023-08-20T18:05:01;27.5;42.8
79513;SHT31;68962;51.980;5.678;2023-08-20T18:07:30;27.4;42.8
79513;SHT31;68962;51.980;5.678;2023-08-20T18:10:01;27.4;42.7
79513;SHT31;68962;51.980;5.678;2023-08-20T18:12:30;27.3;43.0
79513;SHT31;68962;51.980;5.678;2023-08-20T18:14:59;27.2;43.2
79513;SHT31;68962;51.980;5.678;2023-08-20T18:17:27;27.2;43.4
79513;SHT31;68962;51.980;5.678;2023-08-20T18:19:56;27.2;43.4
79513;SHT31;68962;51.980;5.678;2023-08-20T18:22:25;27.2;43.3
79513;SHT31;68962;51.980;5.678;2023-08-20T18:24:53;27.2;42.8
79513;SHT31;68962;51.980;5.678;2023-08-20T18:27:22;27.2;42.7
79513;SHT31;68962;51.980;5.678;2023-08-20T18:29:50;27.2;42.7
79513;SHT31;68962;51.980;5.678;2023-08-20T18:32:19;27.2;42.9
79513;SHT31;68962;51.980;5.678;2023-08-20T18:34:48;27.2;42.9
79513;SHT31;68962;51.980;5.678;2023-08-20T18:37:16;27.1;43.2
79513;SHT31;68962;51.980;5.678;2023-08-20T18:39:45;27.1;43.5
79513;SHT31;68962;51.980;5.678;2023-08-20T18:42:14;27.1;43.8
79513;SHT31;68962;51.980;5.678;2023-08-20T18:44:42;27.0;43.8
79513;SHT31;68962;51.980;5.678;2023-08-20T18:47:11;27.0;43.8
79513;SHT31;68962;51.980;5.678;2023-08-20T18:49:39;26.9;43.9
79513;SHT31;68962;51.980;5.678;2023-08-20T18:52:10;26.7;44.4
79513;SHT31;68962;51.980;5.678;2023-08-20T18:54:39;26.6;44.7
79513;SHT31;68962;51.980;5.678;2023-08-20T18:57:09;26.5;45.0
79513;SHT31;68962;51.980;5.678;2023-08-20T18:59:39;26.4;45.3
79513;SHT31;68962;51.980;5.678;2023-08-20T19:02:09;26.2;45.7
79513;SHT31;68962;51.980;5.678;2023-08-20T19:04:38;26.1;46.0
79513;SHT31;68962;51.980;5.678;2023-08-20T19:07:07;26.0;46.4
79513;SHT31;68962;51.980;5.678;2023-08-20T19:09:36;25.9;46.5
79513;SHT31;68962;51.980;5.678;2023-08-20T19:12:05;25.9;46.6
79513;SHT31;68962;51.980;5.678;2023-08-20T19:14:34;25.7;46.7
79513;SHT31;68962;51.980;5.678;2023-08-20T19:17:03;25.6;47.1
79513;SHT31;68962;51.980;5.678;2023-08-20T19:19:33;25.5;47.2
79513;SHT31;68962;51.980;5.678;2023-08-20T19:22:01;25.4;47.6
79513;SHT31;68962;51.980;5.678;2023-08-20T19:24:30;25.4;47.8
